Time;durP1;ratioP1;P1;durP2;ratioP2;P2;SDS_P1;SDS_P2;PMS_P1;PMS_P2;Temp;Humidity;BMP_temperature;BMP_pressure;BME280_temperature;BME280_humidity;BME280_pressure;Samples;Min_cycle;Max_cycle;Signal;HPM_P1;HPM_P2
2024/01/03 00:02:23;;;;;;;11.40;2.80;;;9.00;99.90;;;;;;5060805;28;20032;-52
2024/01/03 00:04:49;;;;;;;10.65;2.47;;;9.00;99.90;;;;;;5059821;28;20033;-51
2024/01/03 00:07:15;;;;;;;20.42;2.85;;;9.00;99.90;;;;;;5057065;28;20117;-54
2024/01/03 00:09:41;;;;;;;15.27;2.53;;;9.00;99.90;;;;;;5063134;28;20036;-53
2024/01/03 00:12:08;;;;;;;16.23;3.10;;;9.10;99.90;;;;;;5060899;28;20223;-51
2024/01/03 00:14:34;;;;;;;12.38;2.58;;;9.10;99.90;;;;;;5054070;28;20594;-53
2024/01/03 00:17:04;;;;;;;9.85;1.63;;;9.00;99.90;;;;;;5057430;28;20075;-53
2024/01/03 00:19:33;;;;;;;10.02;1.83;;;9.00;99.90;;;;;;5056664;28;20587;-53
2024/01/03 00:22:00;;;;;;;14.70;2.20;;;9.00;99.90;;;;;;5055058;28;20037;-54
2024/01/03 00:24:26;;;;;;;8.13;2.28;;;9.10;99.90;;;;;;5049709;28;20060;-54
2024/01/03 00:26:52;;;;;;;10.15;1.90;;;9.00;99.90;;;;;;5057446;28;20526;-56
2024/01/03 00:29:51;;;;;;;12.43;2.05;;;9.00;99.90;;;;;;5060853;28;20040;-54
2024/01/03 00:32:19;;;;;;;7.47;2.00;;;9.10;99.90;;;;;;5060386;28;20896;-53
2024/01/03 00:34:45;;;;;;;11.05;1.90;;;9.00;99.90;;;;;;5055039;28;20467;-52
2024/01/03 00:37:34;;;;;;;8.05;1.90;;;9.00;99.90;;;;;;5060140;28;20453;-56
2024/01/03 00:40:02;;;;;;;10.55;2.75;;;9.00;99.90;;;;;;5054901;28;20452;-55
2024/01/03 00:42:28;;;;;;;12.82;1.88;;;8.90;99.90;;;;;;5058602;28;20041;-57
2024/01/03 00:44:54;;;;;;;6.78;1.67;;;8.90;99.90;;;;;;5059809;28;20043;-56
2024/01/03 00:47:21;;;;;;;11.70;2.53;;;8.90;99.90;;;;;;5055991;28;20137;-55
2024/01/03 00:49:47;;;;;;;13.98;2.30;;;9.00;99.90;;;;;;5058135;28;20040;-54
2024/01/03 00:52:14;;;;;;;11.15;2.20;;;8.90;99.90;;;;;;5057250;28;20044;-55
2024/01/03 00:54:40;;;;;;;14.80;2.65;;;8.90;99.90;;;;;;5060005;28;20357;-54
2024/01/03 00:57:07;;;;;;;12.98;2.35;;;8.90;99.90;;;;;;5057991;28;20491;-55
2024/01/03 00:59:35;;;;;;;13.88;1.88;;;8.90;99.90;;;;;;5057259;28;20048;-55
2024/01/03 01:02:03;;;;;;;17.05;2.28;;;8.80;99.90;;;;;;5049922;28;20040;-54
2024/01/03 01:04:30;;;;;;;12.50;2.38;;;8.90;99.90;;;;;;5056751;28;20585;-55
2024/01/03 01:06:56;;;;;;;14.18;2.92;;;9.00;99.90;;;;;;5059800;28;20062;-55
2024/01/03 01:09:22;;;;;;;9.35;2.15;;;8.90;99.90;;;;;;5056341;28;20032;-56
2024/01/03 01:11:48;;;;;;;12.93;2.58;;;9.00;99.90;;;;;;5054449;28;20032;-53
2024/01/03 01:14:13;;;;;;;14.18;2.53;;;9.00;99.90;;;;;;5062611;28;20051;-56
2024/01/03 01:16:39;;;;;;;10.27;2.05;;;8.90;99.90;;;;;;5063652;28;20040;-55
2024/01/03 01:19:06;;;;;;;21.85;3.90;;;8.90;99.90;;;;;;5060499;28;20679;-56
2024/01/03 01:21:32;;;;;;;14.40;2.42;;;8.80;99.90;;;;;;5060474;28;20499;-55
2024/01/03 01:23:58;;;;;;;20.13;2.70;;;8.90;99.90;;;;;;5058786;28;20082;-55
2024/01/03 01:26:23;;;;;;;11.70;2.75;;;8.90;99.90;;;;;;5060801;28;20550;-56
2024/01/03 01:28:49;;;;;;;17.85;2.63;;;8.90;99.90;;;;;;5061028;28;20047;-55
2024/01/03 01:31:15;;;;;;;11.52;2.33;;;8.90;99.90;;;;;;5054866;28;20078;-54
2024/01/03 01:33:40;;;;;;;17.02;3.00;;;9.00;99.90;;;;;;5064338;28;20518;-55
2024/01/03 01:36:06;;;;;;;13.82;2.55;;;8.90;99.90;;;;;;5062050;28;20072;-54
2024/01/03 01:38:32;;;;;;;14.50;2.42;;;8.90;99.90;;;;;;5057629;28;20044;-54
2024/01/03 01:40:58;;;;;;;18.83;3.10;;;9.00;99.90;;;;;;5058824;28;20086;-52
2024/01/03 01:43:23;;;;;;;13.18;2.50;;;8.90;99.90;;;;;;5063584;28;20048;-54
2024/01/03 01:45:49;;;;;;;14.68;2.80;;;8.90;99.90;;;;;;5055632;28;20115;-56
2024/01/03 01:48:16;;;;;;;18.45;3.35;;;9.00;99.90;;;;;;5044934;28;20455;-54
2024/01/03 01:50:43;;;;;;;19.50;2.83;;;9.00;99.90;;;;;;5060453;28;20045;-54
2024/01/03 01:53:10;;;;;;;25.00;3.10;;;9.00;99.90;;;;;;5061467;28;20036;-54
2024/01/03 01:55:38;;;;;;;11.50;2.22;;;9.10;99.90;;;;;;5064726;28;20590;-54
2024/01/03 01:58:06;;;;;;;10.50;2.22;;;9.10;99.90;;;;;;5061889;28;20499;-54
2024/01/03 02:00:32;;;;;;;16.58;3.15;;;9.00;99.90;;;;;;5064910;28;20076;-56
2024/01/03 02:02:58;;;;;;;18.17;3.13;;;9.00;99.90;;;;;;5062221;28;20111;-55
2024/01/03 02:05:23;;;;;;;15.43;3.67;;;9.00;99.90;;;;;;5062344;28;20506;-55
2024/01/03 02:07:49;;;;;;;16.10;2.50;;;9.00;99.90;;;;;;5059071;28;20040;-55
2024/01/03 02:10:15;;;;;;;12.00;2.63;;;9.10;99.90;;;;;;5059566;28;20663;-53
2024/01/03 02:12:41;;;;;;;9.48;2.45;;;9.00;99.90;;;;;;5054130;28;20079;-54
2024/01/03 02:15:07;;;;;;;11.05;2.10;;;9.00;99.90;;;;;;5059868;28;20047;-55
2024/01/03 02:17:33;;;;;;;14.60;2.72;;;9.00;99.90;;;;;;5060416;28;20128;-54
2024/01/03 02:20:00;;;;;;;11.05;2.60;;;9.10;99.90;;;;;;5057973;28;20040;-52
2024/01/03 02:22:29;;;;;;;11.80;2.20;;;9.00;99.90;;;;;;5060916;28;20044;-55
2024/01/03 02:24:55;;;;;;;18.77;4.18;;;9.00;99.90;;;;;;5059902;28;20290;-55
2024/01/03 02:27:21;;;;;;;17.33;2.65;;;9.10;99.90;;;;;;5062564;28;20420;-56
2024/01/03 02:29:47;;;;;;;16.88;2.88;;;9.20;99.90;;;;;;5061180;28;20048;-53
2024/01/03 02:32:12;;;;;;;10.20;1.67;;;9.20;99.90;;;;;;5056426;28;20094;-52
2024/01/03 02:34:38;;;;;;;16.27;2.50;;;9.30;99.90;;;;;;5055958;28;20195;-52
2024/01/03 02:37:05;;;;;;;19.85;3.95;;;9.30;99.90;;;;;;5040968;28;20047;-51
2024/01/03 02:39:31;;;;;;;12.40;2.25;;;9.20;99.90;;;;;;5060596;28;20072;-53
2024/01/03 02:41:57;;;;;;;13.45;2.20;;;9.30;99.90;;;;;;5058796;28;20040;-51
2024/01/03 02:44:23;;;;;;;12.90;2.25;;;9.30;99.90;;;;;;5052258;28;20071;-52
2024/01/03 02:46:49;;;;;;;11.77;2.00;;;9.30;99.90;;;;;;5061976;28;20047;-51
2024/01/03 02:49:15;;;;;;;14.57;2.55;;;9.40;99.90;;;;;;5056548;28;20703;-52
2024/01/03 02:51:41;;;;;;;13.23;2.40;;;9.30;99.90;;;;;;5039994;28;20037;-48
2024/01/03 02:54:07;;;;;;;15.02;1.83;;;9.30;99.90;;;;;;5057472;28;20040;-51
2024/01/03 02:56:40;;;;;;;12.57;2.72;;;9.40;99.90;;;;;;5051690;28;20041;-51
2024/01/03 02:59:06;;;;;;;10.95;2.33;;;9.40;99.90;;;;;;5061716;28;20040;-52
2024/01/03 03:01:33;;;;;;;15.05;2.28;;;9.40;99.90;;;;;;5060414;28;20545;-54
2024/01/03 03:03:58;;;;;;;11.13;2.38;;;9.30;99.90;;;;;;5059889;28;20482;-54
2024/01/03 03:06:24;;;;;;;14.70;2.15;;;9.40;99.90;;;;;;5060001;28;20044;-54
2024/01/03 03:08:50;;;;;;;13.55;2.22;;;9.50;99.90;;;;;;5059098;28;20067;-52
2024/01/03 03:11:15;;;;;;;8.27;2.10;;;9.40;99.90;;;;;;5039183;28;20145;-52
2024/01/03 03:13:41;;;;;;;16.08;2.05;;;9.40;99.90;;;;;;5058752;28;20040;-52
2024/01/03 03:16:10;;;;;;;15.98;2.63;;;9.40;99.90;;;;;;5055829;28;20450;-52
2024/01/03 03:18:35;;;;;;;12.50;2.33;;;9.40;99.90;;;;;;5064261;28;20078;-50
2024/01/03 03:21:01;;;;;;;13.98;2.03;;;9.50;99.90;;;;;;5065921;28;20488;-54
2024/01/03 03:23:27;;;;;;;8.45;2.30;;;9.50;99.90;;;;;;5058857;28;20059;-52
2024/01/03 03:25:53;;;;;;;10.65;2.20;;;9.50;99.90;;;;;;5059520;28;20028;-53
2024/01/03 03:28:20;;;;;;;9.65;1.73;;;9.40;99.90;;;;;;5055257;28;20693;-55
2024/01/03 03:30:45;;;;;;;8.68;1.80;;;9.40;99.90;;;;;;5051949;28;20044;-52
2024/01/03 03:33:11;;;;;;;17.60;3.08;;;9.50;99.90;;;;;;5040538;28;20059;-50
2024/01/03 03:35:37;;;;;;;17.17;3.17;;;9.50;99.90;;;;;;5060093;28;20045;-53
2024/01/03 03:38:02;;;;;;;19.63;2.50;;;9.40;99.90;;;;;;5059327;28;20041;-51
2024/01/03 03:40:28;;;;;;;19.70;3.47;;;9.40;99.90;;;;;;5060303;28;20406;-52
2024/01/03 03:42:54;;;;;;;10.02;2.03;;;9.50;99.90;;;;;;5060686;28;20036;-52
2024/01/03 03:45:19;;;;;;;16.05;1.92;;;9.50;99.90;;;;;;5041148;28;20526;-51
2024/01/03 03:47:47;;;;;;;16.58;1.95;;;9.40;99.90;;;;;;5060721;28;20052;-52
2024/01/03 03:50:12;;;;;;;13.38;2.45;;;9.60;99.90;;;;;;5056014;28;20553;-53
2024/01/03 03:52:40;;;;;;;12.88;2.67;;;9.50;99.90;;;;;;5058479;28;20389;-52
2024/01/03 03:55:07;;;;;;;9.82;2.20;;;9.60;99.90;;;;;;5045143;28;20117;-52
2024/01/03 03:57:33;;;;;;;14.23;1.88;;;9.60;99.90;;;;;;5056717;28;20071;-52
2024/01/03 03:59:58;;;;;;;10.30;2.00;;;9.60;99.90;;;;;;5058579;28;20124;-53
2024/01/03 04:02:24;;;;;;;9.30;1.95;;;9.50;99.90;;;;;;5059168;28;20036;-52
2024/01/03 04:04:51;;;;;;;14.27;2.67;;;9.50;99.90;;;;;;5061764;28;20431;-52
2024/01/03 04:07:17;;;;;;;15.40;2.22;;;9.50;99.90;;;;;;5057648;28;20041;-51
2024/01/03 04:09:44;;;;;;;14.13;3.05;;;9.50;99.90;;;;;;5057679;28;20521;-50
2024/01/03 04:12:10;;;;;;;13.50;2.30;;;9.60;99.90;;;;;;5055968;28;20041;-51
2024/01/03 04:14:39;;;;;;;10.25;2.45;;;9.60;99.90;;;;;;5039728;28;20507;-51
2024/01/03 04:17:05;;;;;;;;;;;9.50;99.90;;;;;;5056735;28;20886;-52
2024/01/03 04:19:31;;;;;;;16.90;2.05;;;9.50;99.90;;;;;;5056158;28;19931;-51
2024/01/03 04:21:58;;;;;;;7.90;1.77;;;9.50;99.90;;;;;;5053007;28;20037;-51
2024/01/03 04:24:23;;;;;;;7.50;2.40;;;9.50;99.90;;;;;;5058346;28;20045;-51
2024/01/03 04:26:53;;;;;;;10.98;2.35;;;9.50;99.90;;;;;;5052740;28;20125;-50
2024/01/03 04:29:19;;;;;;;9.38;2.05;;;9.50;99.90;;;;;;5056920;28;20040;-51
2024/01/03 04:31:45;;;;;;;11.13;2.58;;;9.60;99.90;;;;;;5060835;28;20044;-51
2024/01/03 04:34:11;;;;;;;8.23;1.75;;;9.60;99.90;;;;;;5055994;28;20051;-54
2024/01/03 04:36:37;;;;;;;11.05;2.45;;;9.50;99.90;;;;;;5057088;28;20037;-52
2024/01/03 04:39:03;;;;;;;8.50;1.77;;;9.60;99.90;;;;;;5058023;28;20045;-49
2024/01/03 04:41:28;;;;;;;11.88;2.08;;;9.60;99.90;;;;;;5058774;28;20118;-51
2024/01/03 04:43:55;;;;;;;14.88;2.20;;;9.60;99.90;;;;;;5061715;28;20040;-51
2024/01/03 04:46:21;;;;;;;8.32;1.60;;;9.60;99.90;;;;;;5060340;28;20374;-51
2024/01/03 04:48:47;;;;;;;8.18;1.15;;;9.60;99.90;;;;;;5064654;28;20606;-50
2024/01/03 04:51:14;;;;;;;6.43;1.25;;;9.60;99.90;;;;;;5057087;28;20052;-52
2024/01/03 04:53:40;;;;;;;6.97;1.95;;;9.60;99.90;;;;;;5062363;28;20040;-51
2024/01/03 04:56:06;;;;;;;5.65;1.23;;;9.60;99.90;;;;;;5061243;28;20059;-52
2024/01/03 04:58:32;;;;;;;4.95;1.90;;;9.60;99.90;;;;;;5062979;28;20048;-52
2024/01/03 05:00:57;;;;;;;9.15;1.77;;;9.50;99.90;;;;;;5062590;28;20033;-51
2024/01/03 05:03:23;;;;;;;12.18;1.85;;;9.50;99.90;;;;;;5062777;28;20068;-53
2024/01/03 05:05:49;;;;;;;13.18;2.10;;;9.60;99.90;;;;;;5063531;28;20037;-54
2024/01/03 05:08:15;;;;;;;8.20;2.13;;;9.60;99.90;;;;;;5063204;28;20036;-50
2024/01/03 05:10:41;;;;;;;9.00;1.60;;;9.60;99.90;;;;;;5065409;28;20418;-50
2024/01/03 05:13:07;;;;;;;12.82;2.15;;;9.60;99.90;;;;;;5062347;28;20131;-49
2024/01/03 05:15:33;;;;;;;8.80;2.17;;;9.60;99.90;;;;;;5054848;28;20038;-53
2024/01/03 05:17:59;;;;;;;11.52;2.17;;;9.50;99.90;;;;;;5061128;28;20410;-53
2024/01/03 05:20:24;;;;;;;12.95;2.10;;;9.60;99.90;;;;;;5059818;28;20044;-51
2024/01/03 05:22:50;;;;;;;12.45;2.08;;;9.60;99.90;;;;;;5063564;28;20040;-51
2024/01/03 05:25:16;;;;;;;9.93;2.08;;;9.60;99.90;;;;;;5057243;28;20370;-53
2024/01/03 05:27:42;;;;;;;13.13;2.72;;;9.60;99.90;;;;;;5045914;28;20052;-49
2024/01/03 05:30:08;;;;;;;11.18;1.98;;;9.50;99.90;;;;;;5060119;28;20125;-50
2024/01/03 05:32:34;;;;;;;7.53;1.80;;;9.50;99.90;;;;;;5059581;28;20145;-53
2024/01/03 05:34:59;;;;;;;8.13;1.70;;;9.40;99.90;;;;;;5062142;28;20041;-54
2024/01/03 05:37:25;;;;;;;11.18;1.88;;;9.40;99.90;;;;;;5064093;28;20036;-49
2024/01/03 05:39:51;;;;;;;8.55;1.85;;;9.40;99.90;;;;;;5060790;28;20394;-49
2024/01/03 05:42:16;;;;;;;7.22;1.52;;;9.30;99.90;;;;;;5060059;28;20149;-53
2024/01/03 05:44:42;;;;;;;4.85;1.20;;;9.30;99.90;;;;;;5063899;28;20114;-51
2024/01/03 05:47:08;;;;;;;5.15;1.42;;;9.20;99.90;;;;;;5062907;28;20492;-52
2024/01/03 05:49:34;;;;;;;4.10;1.33;;;9.20;99.90;;;;;;5060600;28;20067;-52
2024/01/03 05:52:01;;;;;;;6.50;1.30;;;9.20;99.90;;;;;;5057747;28;20145;-53
2024/01/03 05:54:27;;;;;;;13.30;2.03;;;9.20;99.90;;;;;;5063093;28;20222;-53
2024/01/03 05:56:53;;;;;;;14.25;3.05;;;9.10;99.90;;;;;;5061380;28;20434;-52
2024/01/03 05:59:20;;;;;;;15.15;2.72;;;9.10;99.90;;;;;;5061703;28;20334;-53
2024/01/03 06:01:46;;;;;;;33.80;4.13;;;9.20;99.90;;;;;;5062853;28;20066;-52
2024/01/03 06:04:13;;;;;;;22.30;3.95;;;9.10;99.90;;;;;;5058573;28;20049;-52
2024/01/03 06:06:40;;;;;;;25.25;4.50;;;9.30;99.90;;;;;;5050639;28;20083;-49
2024/01/03 06:09:05;;;;;;;20.95;3.47;;;9.30;99.90;;;;;;5057389;28;20068;-52
2024/01/03 06:11:31;;;;;;;23.08;5.05;;;9.50;99.90;;;;;;5057618;28;20556;-52
2024/01/03 06:13:57;;;;;;;24.17;4.55;;;9.40;99.90;;;;;;5055251;28;20040;-53
2024/01/03 06:16:23;;;;;;;20.92;3.28;;;9.50;99.90;;;;;;5058265;28;20048;-50
2024/01/03 06:18:48;;;;;;;23.52;3.78;;;9.50;99.90;;;;;;5023260;28;20059;-50
2024/01/03 06:21:14;;;;;;;28.25;5.65;;;9.50;99.90;;;;;;5053976;28;20083;-53
2024/01/03 06:23:40;;;;;;;25.17;3.72;;;9.50;99.90;;;;;;5042859;28;20168;-53
2024/01/03 06:26:07;;;;;;;17.98;4.25;;;9.60;99.90;;;;;;5056488;28;20028;-50
2024/01/03 06:28:33;;;;;;;21.80;4.45;;;9.60;99.90;;;;;;5061405;28;20056;-49
2024/01/03 06:31:00;;;;;;;19.33;4.10;;;9.50;99.90;;;;;;5059911;28;20097;-58
2024/01/03 06:33:26;;;;;;;22.65;4.30;;;9.60;99.90;;;;;;5059144;28;20051;-53
2024/01/03 06:35:52;;;;;;;18.88;3.40;;;9.60;99.90;;;;;;5059994;28;20040;-49
2024/01/03 06:38:17;;;;;;;19.23;3.08;;;9.70;99.90;;;;;;5057701;28;20260;-50
2024/01/03 06:40:43;;;;;;;21.88;3.45;;;9.70;99.90;;;;;;5059066;28;20445;-50
2024/01/03 06:43:09;;;;;;;23.45;3.88;;;9.60;99.90;;;;;;5061273;28;20033;-52
2024/01/03 06:45:35;;;;;;;19.33;4.28;;;9.70;99.90;;;;;;5059707;28;20078;-52
2024/01/03 06:48:01;;;;;;;27.65;4.25;;;9.70;99.90;;;;;;5058973;28;20384;-52
2024/01/03 06:50:27;;;;;;;22.63;3.97;;;9.70;99.90;;;;;;5041296;28;20053;-52
2024/01/03 06:52:53;;;;;;;18.75;3.00;;;9.80;99.90;;;;;;5058437;28;20388;-49
2024/01/03 06:55:19;;;;;;;17.38;3.65;;;9.80;99.90;;;;;;5064533;28;20032;-51
2024/01/03 06:57:45;;;;;;;21.55;3.17;;;9.70;99.90;;;;;;5058991;28;20465;-51
2024/01/03 07:00:11;;;;;;;21.35;3.45;;;9.80;99.90;;;;;;5059070;28;20040;-52
2024/01/03 07:02:37;;;;;;;23.75;4.88;;;9.70;99.90;;;;;;5054006;28;20039;-49
2024/01/03 07:05:03;;;;;;;24.83;4.05;;;9.80;99.90;;;;;;5061333;28;20491;-52
2024/01/03 07:07:29;;;;;;;22.13;3.80;;;9.80;99.90;;;;;;5058236;28;20137;-52
2024/01/03 07:09:54;;;;;;;30.52;4.57;;;9.80;99.90;;;;;;5056494;28;20099;-49
2024/01/03 07:12:20;;;;;;;20.00;4.07;;;9.80;99.90;;;;;;5037175;28;20036;-50
2024/01/03 07:14:46;;;;;;;22.58;3.60;;;9.80;99.90;;;;;;5056874;28;20529;-53
2024/01/03 07:17:12;;;;;;;23.95;3.95;;;9.80;99.90;;;;;;5059340;28;20121;-50
2024/01/03 07:19:38;;;;;;;22.10;4.53;;;9.60;99.90;;;;;;5061949;28;20501;-50
2024/01/03 07:22:04;;;;;;;20.58;3.40;;;9.60;99.90;;;;;;5058296;28;20033;-53
2024/01/03 07:24:30;;;;;;;27.85;3.75;;;9.70;99.90;;;;;;5060093;28;20048;-51
2024/01/03 07:26:55;;;;;;;23.38;5.10;;;9.70;99.90;;;;;;5061226;28;20036;-51
2024/01/03 07:29:21;;;;;;;23.48;3.70;;;9.70;99.90;;;;;;5058451;28;20045;-49
2024/01/03 07:31:47;;;;;;;21.98;3.28;;;9.60;99.90;;;;;;5058231;28;20163;-48
2024/01/03 07:34:12;;;;;;;23.90;3.35;;;9.60;99.90;;;;;;5061369;28;20100;-50
2024/01/03 07:36:38;;;;;;;28.17;4.07;;;9.50;99.90;;;;;;5058377;28;20048;-51
2024/01/03 07:39:05;;;;;;;18.52;3.50;;;9.60;99.90;;;;;;5058234;28;20069;-52
2024/01/03 07:41:31;;;;;;;21.17;3.80;;;9.50;99.90;;;;;;5056788;28;20055;-51
2024/01/03 07:43:58;;;;;;;21.77;3.55;;;9.50;99.90;;;;;;5055330;28;20120;-49
2024/01/03 07:46:24;;;;;;;17.55;3.97;;;9.50;99.90;;;;;;5056055;28;20481;-52
2024/01/03 07:48:50;;;;;;;21.42;3.13;;;9.50;99.90;;;;;;5057748;28;20044;-50
2024/01/03 07:51:19;;;;;;;17.52;3.10;;;9.50;99.90;;;;;;5060935;28;20040;-51
2024/01/03 07:53:45;;;;;;;21.67;3.40;;;9.60;99.90;;;;;;5059882;28;20040;-50
2024/01/03 07:56:11;;;;;;;18.08;2.70;;;9.50;99.90;;;;;;5036437;28;20063;-51
2024/01/03 07:58:37;;;;;;;26.15;3.92;;;9.50;99.90;;;;;;5050975;28;20047;-51
2024/01/03 08:01:02;;;;;;;20.40;3.25;;;9.50;99.90;;;;;;5051543;28;20118;-48
2024/01/03 08:03:28;;;;;;;19.08;3.67;;;9.50;99.90;;;;;;5053959;28;20079;-50
2024/01/03 08:05:54;;;;;;;24.08;3.92;;;9.50;99.90;;;;;;5057691;28;20037;-50
2024/01/03 08:08:20;;;;;;;16.77;2.90;;;9.50;99.90;;;;;;5055740;28;20080;-48
2024/01/03 08:10:45;;;;;;;20.00;3.53;;;9.50;99.90;;;;;;5042435;28;20044;-49
2024/01/03 08:13:12;;;;;;;26.70;4.25;;;9.50;99.90;;;;;;5058938;28;20048;-48
2024/01/03 08:15:38;;;;;;;15.70;2.78;;;9.50;99.90;;;;;;5059543;28;20075;-51
2024/01/03 08:18:04;;;;;;;17.80;2.88;;;9.50;99.90;;;;;;5059656;28;20047;-49
2024/01/03 08:20:30;;;;;;;24.98;4.38;;;9.50;99.90;;;;;;5053937;28;20069;-51
2024/01/03 08:22:55;;;;;;;25.42;3.30;;;9.40;99.90;;;;;;5056420;28;20478;-53
2024/01/03 08:25:22;;;;;;;19.15;3.10;;;9.40;99.90;;;;;;5058469;28;20040;-51
2024/01/03 08:27:48;;;;;;;13.88;2.50;;;9.50;99.90;;;;;;5060373;28;20574;-52
2024/01/03 08:30:14;;;;;;;28.50;3.47;;;9.50;99.90;;;;;;5060191;28;20036;-52
2024/01/03 08:32:40;;;;;;;13.95;3.05;;;9.50;99.90;;;;;;5058074;28;20044;-51
2024/01/03 08:35:07;;;;;;;19.05;3.17;;;9.50;99.90;;;;;;5059494;28;20036;-52
2024/01/03 08:37:33;;;;;;;14.93;2.45;;;9.50;99.90;;;;;;5056957;28;20033;-49
2024/01/03 08:40:00;;;;;;;15.90;3.28;;;9.50;99.90;;;;;;5053970;28;20047;-53
2024/01/03 08:42:27;;;;;;;17.85;2.42;;;9.50;99.90;;;;;;5060909;28;20036;-54
2024/01/03 08:44:52;;;;;;;20.48;2.88;;;9.40;99.90;;;;;;5059877;28;20036;-50
2024/01/03 08:47:18;;;;;;;21.45;3.03;;;9.40;99.90;;;;;;5058065;28;20037;-52
2024/01/03 08:49:45;;;;;;;22.15;2.80;;;9.40;99.90;;;;;;5056737;28;20105;-49
2024/01/03 08:52:11;;;;;;;14.73;3.17;;;9.30;99.90;;;;;;5068179;28;20075;-49
2024/01/03 08:54:36;;;;;;;12.45;2.50;;;9.40;99.90;;;;;;5059601;28;20131;-50
2024/01/03 08:57:03;;;;;;;16.70;2.80;;;9.40;99.90;;;;;;5056578;28;20060;-49
2024/01/03 08:59:28;;;;;;;17.05;2.88;;;9.20;99.90;;;;;;5058546;28;20048;-53
2024/01/03 09:01:57;;;;;;;13.68;3.42;;;9.30;99.90;;;;;;5060579;28;20487;-52
2024/01/03 09:04:23;;;;;;;19.05;3.63;;;9.40;99.90;;;;;;5059474;28;20403;-51
2024/01/03 09:06:51;;;;;;;15.57;3.03;;;9.40;99.90;;;;;;5062285;28;20540;-52
2024/01/03 09:09:17;;;;;;;18.58;3.55;;;9.40;99.90;;;;;;5057867;28;20382;-51
2024/01/03 09:11:42;;;;;;;20.27;2.55;;;9.30;99.90;;;;;;5059934;28;20051;-50
2024/01/03 09:14:09;;;;;;;17.30;3.10;;;9.40;99.90;;;;;;5058307;28;20044;-51
2024/01/03 09:16:35;;;;;;;15.30;2.97;;;9.50;99.90;;;;;;5059493;28;20044;-49
2024/01/03 09:19:02;;;;;;;15.45;2.42;;;9.50;99.90;;;;;;5055966;28;20391;-51
2024/01/03 09:21:30;;;;;;;19.20;3.75;;;9.50;99.90;;;;;;5059287;28;20543;-49
2024/01/03 09:23:56;;;;;;;15.35;2.65;;;9.60;99.90;;;;;;5060322;28;20043;-49
2024/01/03 09:26:25;;;;;;;15.38;3.15;;;9.50;99.90;;;;;;5060090;28;20032;-50
2024/01/03 09:28:53;;;;;;;;;;;9.50;99.90;;;;;;5061962;28;20140;-52
2024/01/03 09:31:19;;;;;;;10.25;2.50;;;9.60;99.90;;;;;;5061721;28;19932;-52
2024/01/03 09:33:45;;;;;;;10.43;1.92;;;9.60;99.90;;;;;;5062614;28;20040;-51
2024/01/03 09:36:20;;;;;;;11.93;2.33;;;9.60;99.90;;;;;;5062208;28;20047;-51
2024/01/03 09:38:47;;;;;;;12.13;2.30;;;9.70;99.90;;;;;;5062790;28;20089;-52
2024/01/03 09:41:13;;;;;;;15.48;2.95;;;9.70;99.90;;;;;;5063185;28;20032;-50
2024/01/03 09:43:42;;;;;;;19.35;2.38;;;9.80;99.90;;;;;;5059314;28;20372;-51
2024/01/03 09:46:12;;;;;;;16.58;3.00;;;9.70;99.90;;;;;;5063012;28;20486;-53
2024/01/03 09:48:48;;;;;;;16.98;3.45;;;9.80;99.90;;;;;;5063522;28;20036;-50
2024/01/03 09:51:15;;;;;;;14.60;2.60;;;9.80;99.90;;;;;;5062009;28;20422;-52
2024/01/03 09:53:41;;;;;;;17.63;3.72;;;9.80;99.90;;;;;;5063707;28;20047;-49
2024/01/03 09:56:07;;;;;;;8.60;2.17;;;9.70;99.90;;;;;;5057555;28;20044;-52
2024/01/03 09:58:33;;;;;;;9.18;2.42;;;9.70;99.90;;;;;;5063091;28;20044;-51
2024/01/03 10:00:59;;;;;;;10.40;1.90;;;9.60;99.90;;;;;;5063412;28;20036;-48
2024/01/03 10:03:25;;;;;;;11.40;2.00;;;9.60;99.90;;;;;;5060588;28;20086;-50
2024/01/03 10:06:13;;;;;;;7.47;1.70;;;9.60;99.90;;;;;;5061251;28;20036;-50
2024/01/03 10:08:40;;;;;;;10.43;1.98;;;9.60;99.90;;;;;;5059053;28;20453;-48
2024/01/03 10:11:21;;;;;;;11.68;1.95;;;9.70;99.90;;;;;;5062720;28;20455;-52
2024/01/03 10:13:51;;;;;;;12.90;2.45;;;9.70;99.90;;;;;;5060124;28;20112;-49
2024/01/03 10:16:28;;;;;;;12.25;2.33;;;9.90;99.90;;;;;;5060147;28;20040;-49
2024/01/03 10:19:17;;;;;;;13.18;2.47;;;9.90;99.90;;;;;;5061768;28;20045;-50
2024/01/03 10:21:55;;;;;;;10.00;1.88;;;9.90;99.90;;;;;;5058672;28;20116;-53
2024/01/03 10:24:26;;;;;;;13.05;2.28;;;9.90;99.90;;;;;;5062170;28;20075;-49
2024/01/03 10:26:52;;;;;;;15.85;2.88;;;10.00;99.90;;;;;;5058379;28;20044;-51
2024/01/03 10:29:19;;;;;;;16.73;2.80;;;10.00;99.90;;;;;;5056038;28;20040;-52
2024/01/03 10:31:47;;;;;;;20.85;2.72;;;10.00;99.90;;;;;;5060948;28;20118;-54
2024/01/03 10:34:19;;;;;;;9.30;2.80;;;9.80;99.90;;;;;;5060442;28;20048;-49
2024/01/03 10:36:46;;;;;;;10.90;2.13;;;9.80;99.90;;;;;;5059805;28;20055;-49
2024/01/03 10:39:15;;;;;;;13.95;2.97;;;9.80;99.90;;;;;;5056339;28;20669;-54
2024/01/03 10:41:49;;;;;;;11.90;2.20;;;9.70;99.90;;;;;;5061681;28;20373;-51
2024/01/03 10:44:17;;;;;;;14.07;2.22;;;9.70;99.90;;;;;;5051214;28;20037;-50
2024/01/03 10:46:44;;;;;;;12.35;3.00;;;9.70;99.90;;;;;;5060064;28;20032;-53
2024/01/03 10:49:10;;;;;;;18.83;3.80;;;9.80;99.90;;;;;;5059678;28;20065;-51
2024/01/03 10:51:45;;;;;;;9.20;2.53;;;9.80;99.90;;;;;;5062260;28;20040;-48
2024/01/03 10:54:15;;;;;;;11.20;2.00;;;9.90;99.90;;;;;;5054878;28;20128;-51
2024/01/03 10:56:50;;;;;;;16.05;2.15;;;10.00;99.90;;;;;;5062914;28;20620;-50
2024/01/03 10:59:17;;;;;;;18.98;2.83;;;10.10;99.90;;;;;;5059339;28;20161;-51
2024/01/03 11:01:45;;;;;;;12.67;2.90;;;10.20;99.90;;;;;;5040238;28;20048;-53
2024/01/03 11:04:32;;;;;;;14.48;2.90;;;10.20;99.90;;;;;;5062055;28;20605;-50
2024/01/03 11:07:09;;;;;;;11.75;2.88;;;10.20;99.90;;;;;;5051617;28;20052;-49
2024/01/03 11:09:35;;;;;;;10.35;2.35;;;10.30;99.90;;;;;;5054079;28;20040;-53
2024/01/03 11:12:11;;;;;;;12.45;2.70;;;10.30;99.90;;;;;;5039690;28;20051;-49
2024/01/03 11:14:37;;;;;;;12.80;2.00;;;10.40;99.90;;;;;;5059568;28;20518;-49
2024/01/03 11:17:04;;;;;;;16.58;2.60;;;10.40;99.90;;;;;;5055414;28;20533;-52
2024/01/03 11:19:34;;;;;;;17.50;2.95;;;10.40;99.90;;;;;;5058423;28;20124;-50
2024/01/03 11:22:03;;;;;;;21.80;3.33;;;10.40;99.90;;;;;;5053952;28;20113;-51
2024/01/03 11:24:30;;;;;;;14.70;2.53;;;10.40;99.90;;;;;;5059790;28;20473;-49
2024/01/03 11:26:56;;;;;;;13.73;3.22;;;10.40;99.90;;;;;;5060958;28;20070;-49
2024/01/03 11:29:53;;;;;;;11.35;2.50;;;10.40;99.90;;;;;;5059014;28;20529;-52
2024/01/03 11:32:34;;;;;;;21.42;3.80;;;10.50;99.90;;;;;;5044630;28;20057;-52
2024/01/03 11:35:01;;;;;;;20.63;3.65;;;10.50;99.90;;;;;;5060724;28;20540;-50
2024/01/03 11:37:26;;;;;;;26.70;3.47;;;10.70;99.90;;;;;;5060304;28;20068;-50
2024/01/03 11:39:57;;;;;;;20.52;3.33;;;10.70;99.90;;;;;;5060535;28;20395;-49
2024/01/03 11:42:35;;;;;;;18.75;2.83;;;10.70;99.90;;;;;;5058081;28;20210;-52
2024/01/03 11:45:12;;;;;;;15.45;2.63;;;10.80;99.90;;;;;;5056951;28;20037;-50
2024/01/03 11:47:43;;;;;;;17.25;2.50;;;11.00;99.90;;;;;;5057935;28;20406;-53
2024/01/03 11:50:12;;;;;;;14.13;3.10;;;11.00;99.90;;;;;;5055114;28;20511;-49
2024/01/03 11:52:39;;;;;;;20.92;2.97;;;10.90;99.90;;;;;;5056201;28;20043;-50
2024/01/03 11:55:13;;;;;;;19.80;3.15;;;10.90;99.90;;;;;;5063219;28;20032;-49
2024/01/03 11:57:42;;;;;;;17.15;3.20;;;10.80;99.90;;;;;;5058771;28;20581;-49
2024/01/03 12:00:22;;;;;;;19.75;3.10;;;10.80;99.90;;;;;;5053306;28;20071;-52
2024/01/03 12:02:52;;;;;;;16.30;2.85;;;10.70;99.90;;;;;;5058389;28;20040;-49
2024/01/03 12:05:20;;;;;;;16.70;2.83;;;10.70;99.90;;;;;;5059730;28;20040;-49
2024/01/03 12:07:48;;;;;;;13.07;2.53;;;10.70;99.90;;;;;;5008506;28;20082;-52
2024/01/03 12:10:15;;;;;;;19.08;3.53;;;10.80;99.90;;;;;;5041824;28;20133;-50
2024/01/03 12:12:41;;;;;;;17.85;2.88;;;10.80;99.90;;;;;;5060484;28;20041;-51
2024/01/03 12:15:09;;;;;;;17.00;3.05;;;10.70;99.90;;;;;;5057062;28;20072;-52
2024/01/03 12:17:35;;;;;;;18.58;3.58;;;10.70;99.90;;;;;;5056617;28;20079;-49
2024/01/03 12:20:09;;;;;;;17.80;2.85;;;10.60;99.90;;;;;;5059904;28;20128;-50
2024/01/03 12:22:35;;;;;;;15.15;2.88;;;10.60;99.90;;;;;;5056355;28;20059;-49
2024/01/03 12:25:02;;;;;;;16.20;3.08;;;10.60;99.90;;;;;;5057030;28;20037;-53
2024/01/03 12:27:29;;;;;;;12.98;2.60;;;10.70;99.90;;;;;;5058077;28;20494;-49
2024/01/03 12:30:14;;;;;;;18.33;3.53;;;10.70;99.90;;;;;;5060051;28;20048;-49
2024/01/03 12:32:40;;;;;;;22.90;3.47;;;10.70;99.90;;;;;;5059937;28;20055;-49
2024/01/03 12:35:06;;;;;;;11.60;3.20;;;10.60;99.90;;;;;;5057703;28;20036;-52
2024/01/03 12:37:31;;;;;;;16.95;3.58;;;10.60;99.90;;;;;;5040698;28;20037;-51
2024/01/03 12:39:57;;;;;;;13.75;2.67;;;10.60;99.90;;;;;;5050683;28;20076;-50
2024/01/03 12:42:23;;;;;;;21.33;3.65;;;10.60;99.90;;;;;;5060888;28;20033;-52
2024/01/03 12:44:50;;;;;;;20.02;2.97;;;10.60;99.90;;;;;;5058873;28;20045;-53
2024/01/03 12:47:15;;;;;;;24.40;3.78;;;10.60;99.90;;;;;;5059344;28;20036;-49
2024/01/03 12:49:41;;;;;;;14.98;3.42;;;10.60;99.90;;;;;;5055548;28;20070;-51